Terminal Aerodrome Forecast
Issued by NWS

Home | Current Version | Previous Version | Graphics & Text | Print | Product List | Glossary On
Versions: 1 2 3 4 5 6 7 8 9 10 11 12 13 14 15 16
426
FTUS41 KCLE 170540
TAFFDY
TAF
KFDY 170540Z 1706/1806 26015G23KT P6SM VCSH OVC025
     FM171000 26015G25KT P6SM OVC035
     FM180100 29008KT P6SM SCT035=

USA.gov is the U.S. government's official web portal to all federal, state and local government web resources and services.